Strona główna
METAR-TAF:

METAR-TAF

Lotnisko :

Port lotniczy Benin

Benin, Nigeria

Szerokość geograficzna: 6-19N, Długość geograficzna: 5-36E, wysokość: 79 m

METAR: brakujący

czas: 23:20 (22:20 UTC)

Prognoza

Raport powstał 11 godziny i 20 minut temu, godzina 11:00 UTC
Prognoza ważna od 29 godzina 12 UTC do 30 godzina 18 UTC
Wiatr 10 kt od północny wschód
Widzialność: 5000 m
zmętnienie
Stopniowe zmiany
od 29 godzina 15 UTC do 29 godzina 17 UTC
Przejściowo
od 30 godzina 05 UTC do 30 godzina 07 UTC
Widzialność: 1200 m

TAF: DNBE 291100Z 2912/3018 04010KT 5000 HZ NSC BECMG 2915/2917 21004 TEMPO 3005/3007 1200

Obserwacja i prognoza pogody dla ponad 4000 lotnisk (raport METAR i TAF).

Dostępne stacje oznaczono żółtymi i czerwonymi punktami na mapie.

Najedź kursorem aby zobaczyć nazwę stacji.

Kliknij aby zobaczyć obserwacje i prognozy pogody.

Aby zmienić mapę: kliknij na zielony przycisk z czarnym krzyżykiem, aby powiększyć; na zielony przycisk z myślnikiem, aby pomniejszyć; na zielone strzałki, aby przejść do map sąsiednich.


METAR-TAF: